createdAt,value
2019-01-30T00:01:56.585Z,7.72
2019-01-30T00:04:23.909Z,8.70
2019-01-30T00:06:51.271Z,7.37
2019-01-30T00:09:18.534Z,7.92
2019-01-30T00:11:45.909Z,7.92
2019-01-30T00:14:13.261Z,8.90
2019-01-30T00:16:40.494Z,5.40
2019-01-30T00:19:07.814Z,8.83
2019-01-30T00:21:35.157Z,6.85
2019-01-30T00:24:02.495Z,7.87
2019-01-30T00:26:29.790Z,7.87
2019-01-30T00:28:57.154Z,7.15
2019-01-30T00:31:24.497Z,8.60
2019-01-30T00:33:51.818Z,7.42
2019-01-30T00:36:19.286Z,3.25
2019-01-30T00:38:46.637Z,7.37
2019-01-30T00:41:13.860Z,7.65
2019-01-30T00:43:41.201Z,7.42
2019-01-30T00:46:08.523Z,7.70
2019-01-30T00:48:35.892Z,6.90
2019-01-30T00:51:03.237Z,7.17
2019-01-30T00:53:30.475Z,6.87
2019-01-30T00:55:57.802Z,6.83
2019-01-30T00:58:25.078Z,7.10
2019-01-30T01:00:52.403Z,7.17
2019-01-30T01:03:19.619Z,5.12
2019-01-30T01:05:46.999Z,6.83
2019-01-30T01:08:14.227Z,6.83
2019-01-30T01:10:41.559Z,7.42
2019-01-30T01:13:08.911Z,6.65
2019-01-30T01:15:36.307Z,7.87
2019-01-30T01:18:03.845Z,7.15
2019-01-30T01:20:31.241Z,5.42
2019-01-30T01:22:58.572Z,6.55
2019-01-30T01:25:25.932Z,7.03
2019-01-30T01:27:53.276Z,7.15
2019-01-30T01:30:25.176Z,6.53
2019-01-30T01:32:51.860Z,6.78
2019-01-30T01:35:19.312Z,6.80
2019-01-30T01:37:46.530Z,5.78
2019-01-30T01:40:14.279Z,6.55
2019-01-30T01:42:41.647Z,4.15
2019-01-30T01:45:11.760Z,5.10
2019-01-30T01:47:39.064Z,7.10
2019-01-30T01:50:07.978Z,6.50
2019-01-30T01:52:35.314Z,6.67
2019-01-30T01:55:03.478Z,6.80
2019-01-30T01:57:30.800Z,6.05
2019-01-30T01:59:58.140Z,5.30
2019-01-30T02:02:25.505Z,5.28
2019-01-30T02:04:52.874Z,6.28
2019-01-30T02:07:20.296Z,6.50
2019-01-30T02:09:47.511Z,6.80
2019-01-30T02:12:14.866Z,6.58
2019-01-30T02:14:42.495Z,6.85
2019-01-30T02:17:09.703Z,2.67
2019-01-30T02:19:36.916Z,6.58
2019-01-30T02:22:04.209Z,7.00
2019-01-30T02:24:31.564Z,5.35
2019-01-30T02:26:58.998Z,6.40
2019-01-30T02:29:26.301Z,4.75
2019-01-30T02:31:53.604Z,5.72
2019-01-30T02:34:20.926Z,4.90
2019-01-30T02:36:57.512Z,5.42
2019-01-30T02:39:25.338Z,6.20
2019-01-30T02:41:52.818Z,6.08
2019-01-30T02:44:20.522Z,6.35
2019-01-30T02:46:47.865Z,4.42
2019-01-30T02:49:15.183Z,4.55
2019-01-30T02:51:42.490Z,6.00
2019-01-30T02:54:09.837Z,6.25
2019-01-30T02:56:37.146Z,4.80
2019-01-30T02:59:04.475Z,5.47
2019-01-30T03:01:34.011Z,6.83
2019-01-30T03:04:01.421Z,5.72
2019-01-30T03:06:28.834Z,5.97
2019-01-30T03:08:56.379Z,6.67
2019-01-30T03:11:23.650Z,7.22
2019-01-30T03:13:50.947Z,5.08
2019-01-30T03:16:18.321Z,6.75
2019-01-30T03:18:45.623Z,6.28
2019-01-30T03:21:12.835Z,6.12
2019-01-30T03:23:40.163Z,5.70
2019-01-30T03:26:07.449Z,5.78
2019-01-30T03:28:34.691Z,6.78
2019-01-30T03:31:16.854Z,6.30
2019-01-30T03:33:31.235Z,6.00
2019-01-30T03:35:58.607Z,6.05
2019-01-30T03:38:25.835Z,6.53
2019-01-30T03:40:53.157Z,5.60
2019-01-30T03:43:20.420Z,5.72
2019-01-30T03:45:47.660Z,5.03
2019-01-30T03:48:15.097Z,6.10
2019-01-30T03:50:42.406Z,5.28
2019-01-30T03:53:09.655Z,6.42
2019-01-30T03:55:37.072Z,5.62
2019-01-30T03:58:04.306Z,5.35
2019-01-30T04:00:31.649Z,3.52
2019-01-30T04:02:59.022Z,5.10
2019-01-30T04:05:26.338Z,4.95
2019-01-30T04:07:53.596Z,5.60
2019-01-30T04:10:21.502Z,5.22
2019-01-30T04:12:48.937Z,5.75
2019-01-30T04:15:16.440Z,5.35
2019-01-30T04:17:43.749Z,4.95
2019-01-30T04:20:11.954Z,5.75
2019-01-30T04:22:39.211Z,5.30
2019-01-30T04:25:07.139Z,5.72
2019-01-30T04:27:34.517Z,5.92
2019-01-30T04:30:01.739Z,5.20
2019-01-30T04:32:29.075Z,5.62
2019-01-30T04:34:56.409Z,5.33
2019-01-30T04:37:23.641Z,5.67
2019-01-30T04:39:50.965Z,4.30
2019-01-30T04:42:18.184Z,5.40
2019-01-30T04:44:45.536Z,5.42
2019-01-30T04:47:12.747Z,5.33
2019-01-30T04:49:39.954Z,5.30
2019-01-30T04:52:07.322Z,4.08
2019-01-30T04:54:34.576Z,5.10
2019-01-30T04:57:01.874Z,5.40
2019-01-30T04:59:29.363Z,5.95
2019-01-30T05:01:56.756Z,5.85
2019-01-30T05:04:24.085Z,5.08
2019-01-30T05:06:51.464Z,5.90
2019-01-30T05:09:18.777Z,5.62
2019-01-30T05:11:46.093Z,5.37
2019-01-30T05:14:13.333Z,6.20
2019-01-30T05:16:40.553Z,4.05
2019-01-30T05:19:07.825Z,5.17
2019-01-30T05:21:35.163Z,5.97
2019-01-30T05:24:02.468Z,5.50
2019-01-30T05:26:29.853Z,5.67
2019-01-30T05:28:57.241Z,4.80
2019-01-30T05:31:24.564Z,5.47
2019-01-30T05:33:51.895Z,5.55
2019-01-30T05:36:19.270Z,4.45
2019-01-30T05:38:46.664Z,5.78
2019-01-30T05:41:13.988Z,5.60
2019-01-30T05:43:42.584Z,5.50
2019-01-30T05:46:09.949Z,5.47
2019-01-30T05:48:37.257Z,5.20
2019-01-30T05:51:04.572Z,5.58
2019-01-30T05:53:31.879Z,5.62
2019-01-30T05:55:59.148Z,5.37
2019-01-30T05:58:26.517Z,5.95
2019-01-30T06:00:53.890Z,5.70
2019-01-30T06:03:21.197Z,6.10
2019-01-30T06:05:48.606Z,5.70
2019-01-30T06:08:15.933Z,5.92
2019-01-30T06:10:43.269Z,5.87
2019-01-30T06:13:10.593Z,6.67
2019-01-30T06:15:37.822Z,5.72
2019-01-30T06:18:05.138Z,6.22
2019-01-30T06:20:32.357Z,5.95
2019-01-30T06:23:01.628Z,4.65
2019-01-30T06:25:28.890Z,6.70
2019-01-30T06:27:56.380Z,4.95
2019-01-30T06:30:23.663Z,3.05
2019-01-30T06:32:51.017Z,6.03
2019-01-30T06:35:18.478Z,4.22
2019-01-30T06:37:45.881Z,7.80
2019-01-30T06:40:15.641Z,9.25
2019-01-30T06:42:43.106Z,11.00
2019-01-30T06:45:10.719Z,11.95
2019-01-30T06:47:37.955Z,11.75
2019-01-30T06:50:06.017Z,11.33
2019-01-30T06:52:34.574Z,10.88
2019-01-30T06:55:01.885Z,13.20
2019-01-30T06:57:29.195Z,12.45
2019-01-30T06:59:56.507Z,13.80
2019-01-30T07:02:32.081Z,13.18
2019-01-30T07:04:53.143Z,14.05
2019-01-30T07:07:20.578Z,13.25
2019-01-30T07:09:47.812Z,13.75
2019-01-30T07:12:15.170Z,13.35
2019-01-30T07:14:42.477Z,14.20
2019-01-30T07:17:09.780Z,13.28
2019-01-30T07:19:37.128Z,12.30
2019-01-30T07:22:04.440Z,13.05
2019-01-30T07:24:31.769Z,14.38
2019-01-30T07:26:59.193Z,13.80
2019-01-30T07:29:26.601Z,14.25
2019-01-30T07:31:54.030Z,14.07
2019-01-30T07:34:21.259Z,14.68
2019-01-30T07:36:48.499Z,14.63
2019-01-30T07:39:15.705Z,13.65
2019-01-30T07:41:43.057Z,12.95
2019-01-30T07:44:10.371Z,13.30
2019-01-30T07:46:37.691Z,12.70
2019-01-30T07:49:05.018Z,13.50
2019-01-30T07:51:32.333Z,12.68
2019-01-30T07:53:59.690Z,13.62
2019-01-30T07:56:28.945Z,13.48
2019-01-30T07:58:56.417Z,14.47
2019-01-30T08:01:23.638Z,13.53
2019-01-30T08:03:50.992Z,14.30
2019-01-30T08:06:19.628Z,15.30
2019-01-30T08:08:49.616Z,14.53
2019-01-30T08:11:16.388Z,14.43
2019-01-30T08:13:43.580Z,14.45
2019-01-30T08:16:10.903Z,14.40
2019-01-30T08:18:38.144Z,14.35
2019-01-30T08:21:05.432Z,13.25
2019-01-30T08:23:32.665Z,13.78
2019-01-30T08:26:00.172Z,13.38
2019-01-30T08:28:27.551Z,13.98
2019-01-30T08:30:55.222Z,13.65
2019-01-30T08:33:22.657Z,13.75
2019-01-30T08:35:49.909Z,14.43
2019-01-30T08:38:17.232Z,14.18
2019-01-30T08:40:44.632Z,14.35
2019-01-30T08:43:11.983Z,13.55
2019-01-30T08:45:39.328Z,13.50
2019-01-30T08:48:06.776Z,13.60
2019-01-30T08:50:34.152Z,13.58
2019-01-30T08:53:01.369Z,13.25
2019-01-30T08:55:28.736Z,13.85
2019-01-30T08:57:56.096Z,12.75
2019-01-30T09:00:24.392Z,13.50
2019-01-30T09:02:52.461Z,13.25
2019-01-30T09:05:19.784Z,13.40
2019-01-30T09:07:47.097Z,13.55
2019-01-30T09:10:16.598Z,12.93
2019-01-30T09:12:43.874Z,12.75
2019-01-30T09:15:12.380Z,13.20
2019-01-30T09:17:39.698Z,13.05
2019-01-30T09:20:10.083Z,13.45
2019-01-30T09:22:37.417Z,13.38
2019-01-30T09:25:05.633Z,12.10
2019-01-30T09:27:32.972Z,12.43
2019-01-30T09:30:00.344Z,13.38
2019-01-30T09:32:27.800Z,11.33
2019-01-30T09:34:55.121Z,13.00
2019-01-30T09:37:22.523Z,12.53
2019-01-30T09:39:49.846Z,12.98
2019-01-30T09:42:17.175Z,13.18
2019-01-30T09:44:44.478Z,12.30
2019-01-30T09:47:11.934Z,13.38
2019-01-30T09:49:39.253Z,12.07
2019-01-30T09:52:06.604Z,11.68
2019-01-30T09:54:34.403Z,12.03
2019-01-30T09:57:01.780Z,12.00
2019-01-30T09:59:29.141Z,12.10
2019-01-30T10:01:56.472Z,12.37
2019-01-30T10:04:23.781Z,11.38
2019-01-30T10:06:51.083Z,12.20
2019-01-30T10:09:18.406Z,11.93
2019-01-30T10:11:45.719Z,10.80
2019-01-30T10:14:13.040Z,11.22
2019-01-30T10:16:40.438Z,11.53
2019-01-30T10:19:07.876Z,12.35
2019-01-30T10:21:35.273Z,12.25
2019-01-30T10:24:02.621Z,11.95
2019-01-30T10:26:29.999Z,12.73
2019-01-30T10:28:57.293Z,11.95
2019-01-30T10:31:24.697Z,11.68
2019-01-30T10:33:52.101Z,11.78
2019-01-30T10:36:19.438Z,13.35
2019-01-30T10:38:46.759Z,13.43
2019-01-30T10:41:14.145Z,12.78
2019-01-30T10:43:41.467Z,12.25
2019-01-30T10:46:08.840Z,12.70
2019-01-30T10:48:36.559Z,12.53
2019-01-30T10:51:04.050Z,13.60
2019-01-30T10:53:31.385Z,12.68
2019-01-30T10:55:58.691Z,13.93
2019-01-30T10:58:25.997Z,14.10
2019-01-30T11:00:53.257Z,13.25
2019-01-30T11:03:20.597Z,14.07
2019-01-30T11:05:48.161Z,14.13
2019-01-30T11:08:15.523Z,14.03
2019-01-30T11:10:42.833Z,13.93
2019-01-30T11:13:10.142Z,13.95
2019-01-30T11:15:37.483Z,13.88
2019-01-30T11:18:06.999Z,13.93
2019-01-30T11:20:34.199Z,14.05
2019-01-30T11:23:01.426Z,12.90
2019-01-30T11:25:31.044Z,12.53
2019-01-30T11:27:58.305Z,13.53
2019-01-30T11:30:27.061Z,13.25
2019-01-30T11:32:55.589Z,14.47
2019-01-30T11:35:23.013Z,13.93
2019-01-30T11:37:50.388Z,12.95
2019-01-30T11:40:18.301Z,13.35
2019-01-30T11:42:45.736Z,14.28
2019-01-30T11:45:15.929Z,14.23
2019-01-30T11:47:43.257Z,15.43
2019-01-30T11:50:11.265Z,15.18
2019-01-30T11:52:38.616Z,14.68
2019-01-30T11:55:06.856Z,15.40
2019-01-30T11:57:34.177Z,15.15
2019-01-30T12:00:01.559Z,14.98
2019-01-30T12:02:28.944Z,14.78
2019-01-30T12:04:56.269Z,14.85
2019-01-30T12:07:23.539Z,14.00
2019-01-30T12:09:50.875Z,14.65
2019-01-30T12:12:18.289Z,14.00
2019-01-30T12:14:45.557Z,14.10
2019-01-30T12:17:12.880Z,14.75
2019-01-30T12:19:40.203Z,15.58
2019-01-30T12:22:07.636Z,14.40
2019-01-30T12:24:34.958Z,14.10
2019-01-30T12:27:02.280Z,15.78
2019-01-30T12:29:29.757Z,15.20
2019-01-30T12:31:57.087Z,16.95
2019-01-30T12:34:28.426Z,15.55
2019-01-30T12:36:53.641Z,16.95
2019-01-30T12:39:21.030Z,15.85
2019-01-30T12:41:48.391Z,17.82
2019-01-30T12:44:15.808Z,17.25
2019-01-30T12:46:43.011Z,16.93
2019-01-30T12:49:10.361Z,16.17
2019-01-30T12:51:37.585Z,16.00
2019-01-30T12:54:05.001Z,16.42
2019-01-30T12:56:32.316Z,15.93
2019-01-30T12:59:00.092Z,16.62
2019-01-30T13:01:27.444Z,17.17
2019-01-30T13:03:54.746Z,17.75
2019-01-30T13:06:22.151Z,17.42
2019-01-30T13:08:49.355Z,16.87
2019-01-30T13:11:16.561Z,18.15
2019-01-30T13:13:43.928Z,17.87
2019-01-30T13:16:11.268Z,17.23
2019-01-30T13:18:38.621Z,17.23
2019-01-30T13:21:06.071Z,18.32
2019-01-30T13:23:33.264Z,18.25
2019-01-30T13:26:00.612Z,16.85
2019-01-30T13:28:27.913Z,18.02
2019-01-30T13:30:55.262Z,19.90
2019-01-30T13:33:22.614Z,18.85
2019-01-30T13:35:49.950Z,20.00
2019-01-30T13:38:17.276Z,20.35
2019-01-30T13:40:44.578Z,20.02
2019-01-30T13:43:11.916Z,20.48
2019-01-30T13:45:39.222Z,21.80
2019-01-30T13:48:15.250Z,21.40
2019-01-30T13:50:42.605Z,21.73
2019-01-30T13:53:10.018Z,22.93
2019-01-30T13:55:37.344Z,23.38
2019-01-30T13:58:04.757Z,24.77
2019-01-30T14:00:33.714Z,24.98
2019-01-30T14:03:01.029Z,25.62
2019-01-30T14:05:28.562Z,26.45
2019-01-30T14:07:56.160Z,26.52
2019-01-30T14:10:23.592Z,27.27
2019-01-30T14:12:50.904Z,26.85
2019-01-30T14:15:19.675Z,28.10
2019-01-30T14:17:46.985Z,27.45
2019-01-30T14:20:14.739Z,28.15
2019-01-30T14:22:42.189Z,27.65
2019-01-30T14:25:10.179Z,25.43
2019-01-30T14:27:37.590Z,25.57
2019-01-30T14:30:08.787Z,25.25
2019-01-30T14:32:36.247Z,26.42
2019-01-30T14:35:10.793Z,26.85
2019-01-30T14:37:33.838Z,24.20
2019-01-30T14:40:01.160Z,25.70
2019-01-30T14:42:28.508Z,26.60
2019-01-30T14:44:55.714Z,26.57
2019-01-30T14:47:23.215Z,27.45
2019-01-30T14:49:50.521Z,28.02
2019-01-30T14:52:18.967Z,29.07
2019-01-30T14:54:46.291Z,28.25
2019-01-30T14:57:13.493Z,27.52
2019-01-30T14:59:40.849Z,28.12
2019-01-30T15:02:08.274Z,27.48
2019-01-30T15:04:35.688Z,28.75
2019-01-30T15:07:03.038Z,27.90
2019-01-30T15:09:30.336Z,26.75
2019-01-30T15:11:57.576Z,29.00
2019-01-30T15:14:25.020Z,29.55
2019-01-30T15:16:52.502Z,30.23
2019-01-30T15:19:19.954Z,28.50
2019-01-30T15:21:47.274Z,30.85
2019-01-30T15:24:14.574Z,30.32
2019-01-30T15:26:41.968Z,30.65
2019-01-30T15:29:09.188Z,29.48
2019-01-30T15:31:36.423Z,28.55
2019-01-30T15:34:03.674Z,29.92
2019-01-30T15:36:31.071Z,31.25
2019-01-30T15:38:58.414Z,31.42
2019-01-30T15:41:25.736Z,30.10
2019-01-30T15:43:55.833Z,29.23
2019-01-30T15:46:23.132Z,31.37
2019-01-30T15:48:50.334Z,31.27
2019-01-30T15:51:17.541Z,30.37
2019-01-30T15:53:44.858Z,33.08
2019-01-30T15:56:12.154Z,31.35
2019-01-30T15:58:39.603Z,32.25
2019-01-30T16:01:14.360Z,32.33
2019-01-30T16:03:41.716Z,32.88
2019-01-30T16:06:09.024Z,35.63
2019-01-30T16:08:36.351Z,35.45
2019-01-30T16:11:03.749Z,36.00
2019-01-30T16:13:31.083Z,39.65
2019-01-30T16:16:00.445Z,40.15
2019-01-30T16:18:27.815Z,39.92
2019-01-30T16:20:55.105Z,41.25
2019-01-30T16:23:22.353Z,41.73
2019-01-30T16:25:49.736Z,45.25
2019-01-30T16:28:17.012Z,46.10
2019-01-30T16:30:44.336Z,46.80
2019-01-30T16:33:11.562Z,48.55
2019-01-30T16:35:38.861Z,49.95
2019-01-30T16:38:06.233Z,51.25
2019-01-30T16:40:33.615Z,53.98
2019-01-30T16:43:00.844Z,52.17
2019-01-30T16:45:28.061Z,50.35
2019-01-30T16:47:55.389Z,51.75
2019-01-30T16:50:22.739Z,52.95
2019-01-30T16:52:49.945Z,53.58
2019-01-30T16:55:17.674Z,57.83
2019-01-30T16:57:44.899Z,57.03
2019-01-30T17:00:16.394Z,56.00
2019-01-30T17:02:43.702Z,62.00
2019-01-30T17:05:12.337Z,59.53
2019-01-30T17:07:39.711Z,60.40
2019-01-30T17:10:08.120Z,62.15
2019-01-30T17:12:35.354Z,62.33
2019-01-30T17:15:04.047Z,61.37
2019-01-30T17:17:31.406Z,62.43
2019-01-30T17:19:58.731Z,59.38
2019-01-30T17:22:26.179Z,59.08
2019-01-30T17:24:53.580Z,55.80
2019-01-30T17:27:20.789Z,60.80
2019-01-30T17:29:48.112Z,52.80
2019-01-30T17:32:15.358Z,54.08
2019-01-30T17:34:42.662Z,54.38
2019-01-30T17:37:10.000Z,53.58
2019-01-30T17:39:37.393Z,56.13
2019-01-30T17:42:04.699Z,52.73
2019-01-30T17:44:32.055Z,52.15
2019-01-30T17:46:59.423Z,57.45
2019-01-30T17:49:26.773Z,50.03
2019-01-30T17:51:54.111Z,46.53
2019-01-30T17:54:21.545Z,48.35
2019-01-30T17:56:48.883Z,47.53
2019-01-30T17:59:16.193Z,48.33
2019-01-30T18:01:43.568Z,48.13
2019-01-30T18:04:10.873Z,40.95
2019-01-30T18:06:38.125Z,41.25
2019-01-30T18:09:08.034Z,41.13
2019-01-30T18:11:35.371Z,43.15
2019-01-30T18:14:02.821Z,39.40
2019-01-30T18:16:30.152Z,40.03
2019-01-30T18:18:57.513Z,39.40
2019-01-30T18:21:24.825Z,39.95
2019-01-30T18:23:52.173Z,39.73
2019-01-30T18:26:19.405Z,41.80
2019-01-30T18:28:47.960Z,38.63
2019-01-30T18:31:15.507Z,39.98
2019-01-30T18:33:42.921Z,40.23
2019-01-30T18:36:10.276Z,44.93
2019-01-30T18:38:37.530Z,44.70
2019-01-30T18:41:04.861Z,43.33
2019-01-30T18:43:32.059Z,45.70
2019-01-30T18:45:59.378Z,44.00
2019-01-30T18:48:26.666Z,45.08
2019-01-30T18:50:56.782Z,39.73
2019-01-30T18:53:23.275Z,45.83
2019-01-30T18:55:50.626Z,42.65
2019-01-30T18:58:17.972Z,42.75
2019-01-30T19:00:45.423Z,38.13
2019-01-30T19:03:19.547Z,39.88
2019-01-30T19:05:47.260Z,45.05
2019-01-30T19:08:14.612Z,44.15
2019-01-30T19:10:41.955Z,40.63
2019-01-30T19:13:09.293Z,41.25
2019-01-30T19:15:36.625Z,44.50
2019-01-30T19:18:04.562Z,41.83
2019-01-30T19:20:34.568Z,34.27
2019-01-30T19:23:01.839Z,38.15
2019-01-30T19:25:29.171Z,35.52
2019-01-30T19:27:56.488Z,33.70
2019-01-30T19:30:28.583Z,36.88
2019-01-30T19:32:55.938Z,36.77
2019-01-30T19:35:23.310Z,37.00
2019-01-30T19:37:50.593Z,38.45
2019-01-30T19:40:17.811Z,37.38
2019-01-30T19:42:45.165Z,36.95
2019-01-30T19:45:13.800Z,36.10
2019-01-30T19:47:41.320Z,38.55
2019-01-30T19:50:12.030Z,36.83
2019-01-30T19:52:39.374Z,32.53
2019-01-30T19:55:11.527Z,35.35
2019-01-30T19:57:38.872Z,31.90
2019-01-30T20:00:10.050Z,35.08
2019-01-30T20:02:37.481Z,34.13
2019-01-30T20:05:06.901Z,36.33
2019-01-30T20:07:34.231Z,38.08
2019-01-30T20:10:01.602Z,38.67
2019-01-30T20:12:28.851Z,38.40
2019-01-30T20:14:56.357Z,35.00
2019-01-30T20:17:23.731Z,36.13
2019-01-30T20:19:51.124Z,38.08
2019-01-30T20:22:18.524Z,36.13
2019-01-30T20:24:45.875Z,35.45
2019-01-30T20:27:13.240Z,34.63
2019-01-30T20:29:40.679Z,35.05
2019-01-30T20:32:08.211Z,31.35
2019-01-30T20:34:35.514Z,32.42
2019-01-30T20:37:02.894Z,30.95
2019-01-30T20:39:30.312Z,30.68
2019-01-30T20:41:57.836Z,31.80
2019-01-30T20:44:25.246Z,30.20
2019-01-30T20:46:52.530Z,28.98
2019-01-30T20:49:22.336Z,27.42
2019-01-30T20:51:49.686Z,27.42
2019-01-30T20:54:17.033Z,29.55
2019-01-30T20:56:46.697Z,28.98
2019-01-30T20:59:14.068Z,26.12
2019-01-30T21:01:41.422Z,25.90
2019-01-30T21:04:08.797Z,25.02
2019-01-30T21:06:36.052Z,26.25
2019-01-30T21:09:06.986Z,23.55
2019-01-30T21:11:34.326Z,23.77
2019-01-30T21:14:01.774Z,21.85
2019-01-30T21:16:29.139Z,21.15
2019-01-30T21:18:56.522Z,18.92
2019-01-30T21:21:23.874Z,19.60
2019-01-30T21:23:51.210Z,19.48
2019-01-30T21:26:18.581Z,19.23
2019-01-30T21:28:45.929Z,17.82
2019-01-30T21:31:13.290Z,18.27
2019-01-30T21:33:40.730Z,16.70
2019-01-30T21:36:08.078Z,16.52
2019-01-30T21:38:35.464Z,16.50
2019-01-30T21:41:02.882Z,16.45
2019-01-30T21:43:30.661Z,16.40
2019-01-30T21:45:58.032Z,15.80
2019-01-30T21:48:25.398Z,17.20
2019-01-30T21:50:52.742Z,15.40
2019-01-30T21:53:20.126Z,16.70
2019-01-30T21:55:47.480Z,16.02
2019-01-30T21:58:14.864Z,15.85
2019-01-30T22:00:42.230Z,15.38
2019-01-30T22:03:09.597Z,16.02
2019-01-30T22:05:37.298Z,15.95
2019-01-30T22:08:05.152Z,15.98
2019-01-30T22:10:32.640Z,14.75
2019-01-30T22:13:00.118Z,15.00
2019-01-30T22:15:27.458Z,15.03
2019-01-30T22:17:54.879Z,15.45
2019-01-30T22:20:23.996Z,16.80
2019-01-30T22:22:51.452Z,18.95
2019-01-30T22:25:20.591Z,20.17
2019-01-30T22:27:48.181Z,20.55
2019-01-30T22:30:17.974Z,21.50
2019-01-30T22:32:45.369Z,23.85
2019-01-30T22:35:12.790Z,24.12
2019-01-30T22:37:40.161Z,23.35
2019-01-30T22:40:08.485Z,19.48
2019-01-30T22:42:35.873Z,18.45
2019-01-30T22:45:04.619Z,18.35
2019-01-30T22:47:32.001Z,15.78
2019-01-30T22:49:59.307Z,14.58
2019-01-30T22:52:26.767Z,14.45
2019-01-30T22:54:54.115Z,13.20
2019-01-30T22:57:21.451Z,12.63
2019-01-30T22:59:48.763Z,14.00
2019-01-30T23:02:16.497Z,14.83
2019-01-30T23:05:08.790Z,14.30
2019-01-30T23:08:09.974Z,13.20
2019-01-30T23:11:05.453Z,13.55
2019-01-30T23:13:40.379Z,10.78
2019-01-30T23:17:16.687Z,12.15
2019-01-30T23:20:07.449Z,10.18
2019-01-30T23:23:06.637Z,10.15
2019-01-30T23:25:51.131Z,8.73
2019-01-30T23:29:03.177Z,9.38
2019-01-30T23:31:44.400Z,8.95
2019-01-30T23:34:34.417Z,9.28
2019-01-30T23:37:23.849Z,8.65
2019-01-30T23:40:28.815Z,8.65
2019-01-30T23:43:46.826Z,8.58
2019-01-30T23:46:55.672Z,7.95
2019-01-30T23:49:47.340Z,7.90
2019-01-30T23:52:35.932Z,7.37
2019-01-30T23:55:53.313Z,7.03
2019-01-30T23:58:44.897Z,5.97
